Time;durP1;ratioP1;P1;durP2;ratioP2;P2;SDS_P1;SDS_P2;PMS_P1;PMS_P2;Temp;Humidity;BMP_temperature;BMP_pressure;BME280_temperature;BME280_humidity;BME280_pressure;Samples;Min_cycle;Max_cycle;Signal;HPM_P1;HPM_P2
2023/11/26 00:00:59;;;;;;;5.50;3.80;;;8.50;99.90;;;;;;5020969;28;20433;-28
2023/11/26 00:03:25;;;;;;;6.70;3.90;;;8.50;99.90;;;;;;5023683;28;21012;-28
2023/11/26 00:05:51;;;;;;;6.10;3.90;;;8.50;99.90;;;;;;5022272;28;20478;-28
2023/11/26 00:08:17;;;;;;;4.67;3.43;;;8.50;99.90;;;;;;5034827;28;20423;-27
2023/11/26 00:10:43;;;;;;;5.10;3.87;;;8.50;99.90;;;;;;5035141;28;20497;-28
2023/11/26 00:13:10;;;;;;;6.20;4.13;;;8.50;99.90;;;;;;5011198;28;20451;-28
2023/11/26 00:15:36;;;;;;;5.03;4.20;;;8.50;99.90;;;;;;5028500;28;20502;-28
2023/11/26 00:18:02;;;;;;;6.50;3.70;;;8.50;99.90;;;;;;5033805;28;20514;-29
2023/11/26 00:20:29;;;;;;;6.13;4.40;;;8.50;99.90;;;;;;5031050;28;20494;-28
2023/11/26 00:22:58;;;;;;;7.00;4.20;;;8.50;99.90;;;;;;5033872;28;20451;-27
2023/11/26 00:25:25;;;;;;;7.30;4.43;;;8.50;99.90;;;;;;5019888;28;20505;-28
2023/11/26 00:27:52;;;;;;;7.10;3.77;;;8.50;99.90;;;;;;5018600;28;20278;-28
2023/11/26 00:30:24;;;;;;;7.30;3.87;;;8.50;99.90;;;;;;5019597;28;20502;-28
2023/11/26 00:32:51;;;;;;;4.28;2.95;;;8.50;99.90;;;;;;5025119;28;20451;-28
2023/11/26 00:35:17;;;;;;;6.18;3.25;;;8.50;99.90;;;;;;5017402;28;20196;-28
2023/11/26 00:37:48;;;;;;;6.00;3.33;;;8.60;99.90;;;;;;5006571;28;20945;-29
2023/11/26 00:40:17;;;;;;;3.77;3.33;;;8.60;99.90;;;;;;5008194;28;20914;-30
2023/11/26 00:42:43;;;;;;;6.33;4.40;;;8.60;99.90;;;;;;5029291;28;20449;-28
2023/11/26 00:45:11;;;;;;;5.80;3.40;;;8.60;99.90;;;;;;5028091;28;20481;-28
2023/11/26 00:47:38;;;;;;;6.40;3.70;;;8.60;99.90;;;;;;4999587;28;20429;-29
2023/11/26 00:50:04;;;;;;;6.47;4.22;;;8.50;99.90;;;;;;5009167;28;21049;-29
2023/11/26 00:52:32;;;;;;;6.33;4.40;;;8.50;99.90;;;;;;4992776;28;20204;-28
2023/11/26 00:54:59;;;;;;;6.83;3.33;;;8.60;99.90;;;;;;5019848;28;20655;-29
2023/11/26 00:57:26;;;;;;;5.50;3.50;;;8.50;99.90;;;;;;5018554;28;20435;-28
2023/11/26 00:59:52;;;;;;;6.10;3.63;;;8.50;99.90;;;;;;5017581;28;20435;-28
2023/11/26 01:02:21;;;;;;;7.00;3.53;;;8.50;99.90;;;;;;5029939;28;20434;-29
2023/11/26 01:04:50;;;;;;;6.00;4.13;;;8.50;99.90;;;;;;5012647;28;20981;-27
2023/11/26 01:07:17;;;;;;;6.87;3.63;;;8.50;99.90;;;;;;5015740;28;20465;-29
2023/11/26 01:09:44;;;;;;;4.03;2.70;;;8.50;99.90;;;;;;5000139;28;20537;-28
2023/11/26 01:12:10;;;;;;;4.88;2.80;;;8.50;99.90;;;;;;4992758;28;20861;-28
2023/11/26 01:14:36;;;;;;;4.53;3.07;;;8.50;99.90;;;;;;5009049;28;20207;-28
2023/11/26 01:17:02;;;;;;;4.33;3.00;;;8.50;99.90;;;;;;5019930;28;20435;-28
2023/11/26 01:19:31;;;;;;;4.73;3.40;;;8.50;99.90;;;;;;5021970;28;20859;-30
2023/11/26 01:21:57;;;;;;;5.70;4.20;;;8.50;99.90;;;;;;4987287;28;21116;-28
2023/11/26 01:24:23;;;;;;;4.17;3.57;;;8.50;99.90;;;;;;5007970;28;20450;-29
2023/11/26 01:26:49;;;;;;;5.90;3.03;;;8.50;99.90;;;;;;5015490;28;20473;-29
2023/11/26 01:29:19;;;;;;;4.47;3.73;;;8.50;99.90;;;;;;5001267;28;20427;-28
2023/11/26 01:31:45;;;;;;;4.73;3.20;;;8.40;99.90;;;;;;5019992;28;20427;-28
2023/11/26 01:34:11;;;;;;;6.70;3.70;;;8.40;99.90;;;;;;5030447;28;20431;-29
2023/11/26 01:36:40;;;;;;;5.50;3.20;;;8.40;99.90;;;;;;4991612;28;20447;-29
2023/11/26 01:39:07;;;;;;;6.50;3.00;;;8.40;99.90;;;;;;5011845;28;20441;-29
2023/11/26 01:41:34;;;;;;;3.27;2.90;;;8.40;99.90;;;;;;5013326;28;20525;-30
2023/11/26 01:44:00;;;;;;;5.00;3.60;;;8.40;99.90;;;;;;5037591;28;21055;-28
2023/11/26 01:46:29;;;;;;;4.67;3.50;;;8.40;99.90;;;;;;5011882;28;20985;-30
2023/11/26 01:48:58;;;;;;;3.30;3.00;;;8.40;99.90;;;;;;5032649;28;20418;-30
2023/11/26 01:51:29;;;;;;;5.93;3.50;;;8.40;99.90;;;;;;5018935;28;20423;-29
2023/11/26 01:53:56;;;;;;;4.97;3.00;;;8.40;99.90;;;;;;5017782;28;20439;-28
2023/11/26 01:56:22;;;;;;;8.37;3.80;;;8.50;99.90;;;;;;5009234;28;20421;-30
2023/11/26 01:58:49;;;;;;;4.77;3.63;;;8.40;99.90;;;;;;5001284;28;20446;-28
2023/11/26 02:01:20;;;;;;;6.55;3.00;;;8.40;99.90;;;;;;5031107;28;20423;-29
2023/11/26 02:03:47;;;;;;;5.13;3.40;;;8.40;99.90;;;;;;5013563;28;20217;-28
2023/11/26 02:06:16;;;;;;;6.10;3.37;;;8.50;99.90;;;;;;5017669;28;21346;-28
2023/11/26 02:08:42;;;;;;;4.37;3.33;;;8.50;99.90;;;;;;5019617;28;20968;-29
2023/11/26 02:11:08;;;;;;;3.53;3.03;;;8.40;99.90;;;;;;4984674;28;20596;-28
2023/11/26 02:13:45;;;;;;;6.22;3.42;;;8.40;99.90;;;;;;4999298;28;20542;-29
2023/11/26 02:16:11;;;;;;;4.50;3.00;;;8.40;99.90;;;;;;4995148;28;20235;-29
2023/11/26 02:18:40;;;;;;;4.93;2.70;;;8.50;99.90;;;;;;5020089;28;21022;-27
2023/11/26 02:21:08;;;;;;;4.82;3.05;;;8.50;99.90;;;;;;5018072;28;20438;-29
2023/11/26 02:23:37;;;;;;;4.77;2.60;;;8.50;99.90;;;;;;5016172;28;20208;-30
2023/11/26 02:26:11;;;;;;;6.50;3.07;;;8.50;99.90;;;;;;5021543;28;20553;-28
2023/11/26 02:28:40;;;;;;;7.70;3.30;;;8.50;99.90;;;;;;5005162;28;20425;-30
2023/11/26 02:31:06;;;;;;;4.53;3.07;;;8.50;99.90;;;;;;5030523;28;21162;-29
2023/11/26 02:33:36;;;;;;;4.43;2.95;;;8.40;99.90;;;;;;5031184;28;20449;-29
2023/11/26 02:36:04;;;;;;;4.80;3.23;;;8.40;99.90;;;;;;5043085;28;20198;-28
2023/11/26 02:38:32;;;;;;;3.20;2.83;;;8.50;99.90;;;;;;5015830;28;21014;-28
2023/11/26 02:40:58;;;;;;;4.07;2.87;;;8.50;99.90;;;;;;5030528;28;20425;-28
2023/11/26 02:43:24;;;;;;;3.75;2.83;;;8.40;99.90;;;;;;5013108;28;20525;-29
2023/11/26 02:45:56;;;;;;;4.20;3.10;;;8.40;99.90;;;;;;5011100;28;20242;-29
2023/11/26 02:48:24;;;;;;;3.30;2.47;;;8.40;99.90;;;;;;5004790;28;20431;-28
2023/11/26 02:50:52;;;;;;;5.83;3.10;;;8.40;99.90;;;;;;5012182;28;20453;-28
2023/11/26 02:53:19;;;;;;;4.83;3.20;;;8.40;99.90;;;;;;5020706;28;20441;-30
2023/11/26 02:55:46;;;;;;;8.40;3.30;;;8.40;99.90;;;;;;5037545;28;20435;-28
2023/11/26 02:58:13;;;;;;;6.83;3.07;;;8.40;99.90;;;;;;5022339;28;20569;-28
2023/11/26 03:00:45;;;;;;;3.00;2.60;;;8.40;99.90;;;;;;5024342;28;20430;-28
2023/11/26 03:03:12;;;;;;;3.73;2.70;;;8.30;99.90;;;;;;5014061;28;20504;-28
2023/11/26 03:05:39;;;;;;;5.87;3.07;;;8.30;99.90;;;;;;5036563;28;20484;-29
2023/11/26 03:08:21;;;;;;;5.70;3.20;;;8.30;99.90;;;;;;5022063;28;20446;-28
2023/11/26 03:13:36;;;;;;;5.80;3.37;;;8.30;99.90;;;;;;5024048;28;20434;-29
2023/11/26 03:16:07;;;;;;;3.57;2.70;;;8.30;99.90;;;;;;5019031;28;20430;-28
2023/11/26 03:18:34;;;;;;;3.10;2.60;;;8.30;99.90;;;;;;5036943;28;20810;-29
2023/11/26 03:21:00;;;;;;;4.60;2.87;;;8.30;99.90;;;;;;4999337;28;20215;-29
2023/11/26 03:23:27;;;;;;;6.03;3.73;;;8.30;99.90;;;;;;5023338;28;20462;-29
2023/11/26 03:25:56;;;;;;;4.10;3.00;;;8.30;99.90;;;;;;5020518;28;20476;-28
2023/11/26 03:28:23;;;;;;;5.33;3.30;;;8.30;99.90;;;;;;5035573;28;20422;-29
2023/11/26 03:30:52;;;;;;;4.03;2.80;;;8.30;99.90;;;;;;5039214;28;20430;-30
2023/11/26 03:33:19;;;;;;;3.93;2.80;;;8.30;99.90;;;;;;4991509;28;20520;-29
2023/11/26 03:35:45;;;;;;;5.80;2.90;;;8.30;99.90;;;;;;5004963;28;20537;-28
2023/11/26 03:38:14;;;;;;;5.50;2.90;;;8.40;99.90;;;;;;5033831;28;20629;-28
2023/11/26 03:40:40;;;;;;;4.43;2.40;;;8.40;99.90;;;;;;5011599;28;20809;-28
2023/11/26 03:43:07;;;;;;;8.00;2.80;;;8.50;99.90;;;;;;4980150;28;21327;-28
2023/11/26 03:45:36;;;;;;;3.17;2.60;;;8.40;99.90;;;;;;5016819;28;20480;-28
2023/11/26 03:48:05;;;;;;;5.13;3.30;;;8.40;99.90;;;;;;5015901;28;20439;-29
2023/11/26 03:50:32;;;;;;;4.20;2.40;;;8.40;99.90;;;;;;5019021;28;20434;-28
2023/11/26 03:53:00;;;;;;;6.90;3.07;;;8.30;99.90;;;;;;5023401;28;20442;-27
2023/11/26 03:55:27;;;;;;;5.63;3.50;;;8.30;99.90;;;;;;5012557;28;20512;-35
2023/11/26 03:57:52;;;;;;;5.67;2.93;;;8.30;99.90;;;;;;5029209;28;20961;-28
2023/11/26 04:00:19;;;;;;;6.43;3.25;;;8.30;99.90;;;;;;5018400;28;20535;-28
2023/11/26 04:02:48;;;;;;;7.23;2.70;;;8.30;99.90;;;;;;5035783;28;20386;-29
2023/11/26 04:05:17;;;;;;;2.90;2.60;;;8.30;99.90;;;;;;4996343;28;20460;-28
2023/11/26 04:07:49;;;;;;;4.03;2.77;;;8.30;99.90;;;;;;5011867;28;20991;-29
2023/11/26 04:10:15;;;;;;;5.47;3.00;;;8.30;99.90;;;;;;5022788;28;20410;-28
2023/11/26 04:12:48;;;;;;;4.97;2.80;;;8.30;99.90;;;;;;4999166;28;20294;-28
2023/11/26 04:15:19;;;;;;;3.80;2.53;;;8.30;99.90;;;;;;5012399;28;20454;-30
2023/11/26 04:17:45;;;;;;;3.63;3.33;;;8.30;99.90;;;;;;5029024;28;20439;-31
2023/11/26 04:20:11;;;;;;;3.67;3.00;;;8.30;99.90;;;;;;5029536;28;20430;-29
2023/11/26 04:22:37;;;;;;;4.03;3.20;;;8.30;99.90;;;;;;5034129;28;21195;-29
2023/11/26 04:25:06;;;;;;;6.13;3.27;;;8.30;99.90;;;;;;5037638;28;20430;-29
2023/11/26 04:27:35;;;;;;;5.47;3.17;;;8.30;99.90;;;;;;5041232;28;20496;-29
2023/11/26 04:30:03;;;;;;;3.22;2.53;;;8.20;99.90;;;;;;5035089;28;20419;-29
2023/11/26 04:32:31;;;;;;;6.77;3.33;;;8.20;99.90;;;;;;5029239;28;20726;-28
2023/11/26 04:34:57;;;;;;;3.47;2.47;;;8.30;99.90;;;;;;5012361;28;20426;-30
2023/11/26 04:37:23;;;;;;;4.45;2.75;;;8.20;99.90;;;;;;5040886;28;20793;-28
2023/11/26 04:39:49;;;;;;;3.40;2.50;;;8.30;99.90;;;;;;5011391;28;20195;-28
2023/11/26 04:42:18;;;;;;;6.80;3.20;;;8.30;99.90;;;;;;5030240;28;20423;-28
2023/11/26 04:44:44;;;;;;;4.35;2.72;;;8.30;99.90;;;;;;5038975;28;21172;-28
2023/11/26 04:47:11;;;;;;;3.65;2.60;;;8.30;99.90;;;;;;5021576;28;20297;-29
2023/11/26 04:49:41;;;;;;;5.00;3.03;;;8.30;99.90;;;;;;5012555;28;20203;-30
2023/11/26 04:52:08;;;;;;;7.57;2.97;;;8.30;99.90;;;;;;5016666;28;21097;-28
2023/11/26 04:54:34;;;;;;;6.30;2.80;;;8.30;99.90;;;;;;5032019;28;20962;-29
2023/11/26 04:57:01;;;;;;;4.57;3.00;;;8.30;99.90;;;;;;5021168;28;20439;-28
2023/11/26 04:59:27;;;;;;;5.83;2.80;;;8.30;99.90;;;;;;5033227;28;20533;-28
2023/11/26 05:01:56;;;;;;;5.78;3.20;;;8.20;99.90;;;;;;5028286;28;20446;-30
2023/11/26 05:04:22;;;;;;;5.60;4.07;;;8.20;99.90;;;;;;5027453;28;20250;-29
2023/11/26 05:06:48;;;;;;;7.38;2.90;;;8.20;99.90;;;;;;5026719;28;20468;-29
2023/11/26 05:09:20;;;;;;;5.10;3.03;;;8.20;99.90;;;;;;5026428;28;20180;-28
2023/11/26 05:11:46;;;;;;;5.45;2.50;;;8.30;99.90;;;;;;5006662;28;20459;-28
2023/11/26 05:14:12;;;;;;;3.95;2.70;;;8.30;99.90;;;;;;5022377;28;20265;-28
2023/11/26 05:16:39;;;;;;;3.90;2.80;;;8.30;99.90;;;;;;5017943;28;20184;-28
2023/11/26 05:19:07;;;;;;;4.50;2.83;;;8.30;99.90;;;;;;5030249;28;21019;-28
2023/11/26 05:21:33;;;;;;;6.78;3.35;;;8.30;99.90;;;;;;5012604;28;20427;-29
2023/11/26 05:23:59;;;;;;;3.70;2.80;;;8.30;99.90;;;;;;5021768;28;20730;-28
2023/11/26 05:26:27;;;;;;;3.73;2.70;;;8.30;99.90;;;;;;5036286;28;21022;-29
2023/11/26 05:28:53;;;;;;;6.13;3.00;;;8.30;99.90;;;;;;5014358;28;20423;-28
2023/11/26 05:31:20;;;;;;;6.40;2.70;;;8.20;99.90;;;;;;5027047;28;20447;-28
2023/11/26 05:33:46;;;;;;;5.50;3.63;;;8.20;99.90;;;;;;5031011;28;20444;-29
2023/11/26 05:36:15;;;;;;;6.93;3.27;;;8.20;99.90;;;;;;5036935;28;20200;-28
2023/11/26 05:38:46;;;;;;;4.40;2.93;;;8.20;99.90;;;;;;5026101;28;20545;-29
2023/11/26 05:41:12;;;;;;;5.10;3.40;;;8.20;99.90;;;;;;5010888;28;20450;-30
2023/11/26 05:43:41;;;;;;;5.30;3.08;;;8.20;99.90;;;;;;5028978;28;20492;-29
2023/11/26 05:46:08;;;;;;;3.55;2.92;;;8.20;99.90;;;;;;5031025;28;20224;-29
2023/11/26 05:48:36;;;;;;;3.80;3.10;;;8.30;99.90;;;;;;5025354;28;20681;-29
2023/11/26 05:51:03;;;;;;;5.25;3.17;;;8.30;99.90;;;;;;5016978;28;20565;-30
2023/11/26 05:53:29;;;;;;;5.47;3.50;;;8.30;99.90;;;;;;5034299;28;20294;-30
2023/11/26 05:55:55;;;;;;;4.32;2.72;;;8.30;99.90;;;;;;5020867;28;20206;-29
2023/11/26 05:58:22;;;;;;;3.10;2.80;;;8.40;99.90;;;;;;5019181;28;20191;-37
2023/11/26 06:00:49;;;;;;;6.13;3.83;;;8.30;99.90;;;;;;5028526;28;20422;-30
2023/11/26 06:03:16;;;;;;;5.03;3.43;;;8.30;99.90;;;;;;5035199;28;20454;-28
2023/11/26 06:05:42;;;;;;;6.77;3.63;;;8.30;99.90;;;;;;5043011;28;21024;-27
2023/11/26 06:08:14;;;;;;;7.07;3.55;;;8.20;99.90;;;;;;5040241;28;20448;-27
2023/11/26 06:10:40;;;;;;;5.90;3.60;;;8.20;99.90;;;;;;5022742;28;20212;-27
2023/11/26 06:13:06;;;;;;;7.97;3.50;;;8.20;99.90;;;;;;5020738;28;20450;-28
2023/11/26 06:15:32;;;;;;;5.50;3.70;;;8.20;99.90;;;;;;5036381;28;20609;-28
2023/11/26 06:18:01;;;;;;;5.03;3.30;;;8.20;99.90;;;;;;5041169;28;20434;-30
2023/11/26 06:20:27;;;;;;;6.60;3.43;;;8.10;99.90;;;;;;5041320;28;20477;-29
2023/11/26 06:22:55;;;;;;;6.77;4.20;;;8.10;99.90;;;;;;5039095;28;20533;-29
2023/11/26 06:25:21;;;;;;;9.70;3.60;;;8.10;99.90;;;;;;5039615;28;20491;-28
2023/11/26 06:27:51;;;;;;;5.90;3.73;;;8.10;99.90;;;;;;5039593;28;20426;-29
2023/11/26 06:30:20;;;;;;;4.70;3.30;;;8.10;99.90;;;;;;5038733;28;20511;-29
2023/11/26 06:32:45;;;;;;;4.50;4.10;;;8.10;99.90;;;;;;5017982;28;20504;-27
2023/11/26 06:35:13;;;;;;;4.97;3.50;;;8.10;99.90;;;;;;5012442;28;20439;-28
2023/11/26 06:37:40;;;;;;;4.83;3.50;;;8.10;99.90;;;;;;5036051;28;20414;-27
2023/11/26 06:40:08;;;;;;;6.13;4.27;;;8.10;99.90;;;;;;5036836;28;20419;-28
2023/11/26 06:42:34;;;;;;;4.10;3.70;;;8.10;99.90;;;;;;5019329;28;20447;-28
2023/11/26 06:45:00;;;;;;;7.57;4.80;;;8.10;99.90;;;;;;5020072;28;20537;-27
2023/11/26 06:47:29;;;;;;;7.03;3.80;;;8.10;99.90;;;;;;5020931;28;20422;-27
2023/11/26 06:49:55;;;;;;;6.53;3.80;;;8.10;99.90;;;;;;5001385;28;20180;-28
2023/11/26 06:52:21;;;;;;;6.50;4.30;;;8.10;99.90;;;;;;5020443;28;20449;-28
2023/11/26 06:54:52;;;;;;;4.83;4.20;;;8.10;99.90;;;;;;5020341;28;20453;-28
2023/11/26 06:57:20;;;;;;;6.10;4.53;;;8.10;99.90;;;;;;5038165;28;20422;-27
2023/11/26 06:59:49;;;;;;;6.00;4.67;;;8.00;99.90;;;;;;5020302;28;20909;-27
2023/11/26 07:02:15;;;;;;;7.60;4.40;;;8.10;99.90;;;;;;5019387;28;20449;-27
2023/11/26 07:04:41;;;;;;;5.23;4.27;;;8.10;99.90;;;;;;5001722;28;20202;-28
2023/11/26 07:07:10;;;;;;;7.10;4.07;;;8.10;99.90;;;;;;5036699;28;21106;-28
2023/11/26 07:09:36;;;;;;;5.83;3.90;;;8.10;99.90;;;;;;5017013;28;20869;-28
2023/11/26 07:12:02;;;;;;;5.60;4.40;;;8.10;99.90;;;;;;5017097;28;20452;-27
2023/11/26 07:14:31;;;;;;;4.83;4.33;;;8.00;99.90;;;;;;5009312;28;20491;-27
2023/11/26 07:16:57;;;;;;;6.15;4.43;;;8.00;99.90;;;;;;5034705;28;20438;-28
2023/11/26 07:19:24;;;;;;;6.03;4.10;;;8.10;99.90;;;;;;5035231;28;20827;-27
2023/11/26 07:21:53;;;;;;;6.55;4.72;;;8.10;99.90;;;;;;5037899;28;20427;-27
2023/11/26 07:24:24;;;;;;;8.70;4.03;;;8.10;99.90;;;;;;5039623;28;20242;-27
2023/11/26 07:26:53;;;;;;;7.00;4.30;;;8.10;99.90;;;;;;5039486;28;21095;-27
2023/11/26 07:29:18;;;;;;;8.73;5.53;;;8.10;99.90;;;;;;5040100;28;21238;-28
2023/11/26 07:31:47;;;;;;;4.80;4.20;;;8.10;99.90;;;;;;5041081;28;20425;-27
2023/11/26 07:34:13;;;;;;;9.83;5.10;;;8.10;99.90;;;;;;5039694;28;20459;-27
2023/11/26 07:36:42;;;;;;;5.70;4.63;;;8.00;99.90;;;;;;5005595;28;21250;-28
2023/11/26 07:39:10;;;;;;;6.77;4.80;;;8.00;99.90;;;;;;5021204;28;20438;-27
2023/11/26 07:41:37;;;;;;;8.67;5.63;;;8.00;99.90;;;;;;5038832;28;20454;-27
2023/11/26 07:44:09;;;;;;;8.67;4.97;;;8.00;99.90;;;;;;5020911;28;20791;-27
2023/11/26 07:46:35;;;;;;;9.70;5.23;;;8.00;99.90;;;;;;5042327;28;20469;-27
2023/11/26 07:49:05;;;;;;;8.60;5.07;;;8.00;99.90;;;;;;5043948;28;20510;-28
2023/11/26 07:51:33;;;;;;;4.93;4.20;;;8.00;99.90;;;;;;5005263;28;20200;-27
2023/11/26 07:54:00;;;;;;;7.47;5.20;;;8.00;99.90;;;;;;5040540;28;20453;-28
2023/11/26 07:56:27;;;;;;;8.87;5.20;;;8.00;99.90;;;;;;5021287;28;20472;-28
2023/11/26 07:58:53;;;;;;;9.20;5.67;;;8.00;99.90;;;;;;5020787;28;20434;-27
2023/11/26 08:01:19;;;;;;;7.82;5.68;;;8.00;99.90;;;;;;5040324;28;20434;-27
2023/11/26 08:03:45;;;;;;;9.63;5.33;;;8.00;99.90;;;;;;5039601;28;20237;-27
2023/11/26 08:06:17;;;;;;;8.40;5.40;;;8.00;99.90;;;;;;5004543;28;20471;-28
2023/11/26 08:08:43;;;;;;;6.32;4.97;;;8.00;99.90;;;;;;5021208;28;20622;-27
2023/11/26 08:11:12;;;;;;;6.13;5.33;;;8.10;99.90;;;;;;5040819;28;20235;-27
2023/11/26 08:13:41;;;;;;;6.03;5.03;;;8.10;99.90;;;;;;5039788;28;20442;-28
2023/11/26 08:16:10;;;;;;;7.17;5.77;;;8.10;99.90;;;;;;5020628;28;20520;-27
2023/11/26 08:18:39;;;;;;;7.53;5.50;;;8.00;99.90;;;;;;5038457;28;20457;-37
2023/11/26 08:21:11;;;;;;;8.87;5.80;;;8.00;99.90;;;;;;5020062;28;20550;-27
2023/11/26 08:23:50;;;;;;;10.55;5.72;;;8.00;99.90;;;;;;5019011;28;20458;-28
2023/11/26 08:26:16;;;;;;;7.60;5.33;;;8.00;99.90;;;;;;5020050;28;21170;-28
2023/11/26 08:28:43;;;;;;;7.77;6.17;;;8.00;99.90;;;;;;5039143;28;20423;-27
2023/11/26 08:31:10;;;;;;;7.90;5.87;;;8.00;99.90;;;;;;5019916;28;20894;-29
2023/11/26 08:33:42;;;;;;;9.37;6.33;;;8.00;99.90;;;;;;5037281;28;20989;-28
2023/11/26 08:36:09;;;;;;;9.90;5.83;;;8.00;99.90;;;;;;5039143;28;20468;-27
2023/11/26 08:38:41;;;;;;;8.00;5.63;;;8.00;99.90;;;;;;5039539;28;21347;-27
2023/11/26 08:41:11;;;;;;;7.70;5.20;;;8.00;99.90;;;;;;5001561;28;20687;-27
2023/11/26 08:43:39;;;;;;;7.67;6.17;;;8.00;99.90;;;;;;5037676;28;20471;-27
2023/11/26 08:46:07;;;;;;;8.97;6.20;;;8.00;99.90;;;;;;5037462;28;20512;-27
2023/11/26 08:48:36;;;;;;;7.73;5.73;;;8.00;99.90;;;;;;5037926;28;20453;-27
2023/11/26 08:51:02;;;;;;;10.10;6.67;;;8.00;99.90;;;;;;5042530;28;20444;-27
2023/11/26 08:53:32;;;;;;;6.88;5.70;;;8.00;99.90;;;;;;5040874;28;20483;-28
2023/11/26 08:56:00;;;;;;;9.87;6.73;;;8.00;99.90;;;;;;5016347;28;20215;-27
2023/11/26 08:58:27;;;;;;;10.37;7.47;;;8.00;99.90;;;;;;5038235;28;20514;-28
2023/11/26 09:00:56;;;;;;;12.43;6.53;;;8.00;99.90;;;;;;5020417;28;20477;-27
2023/11/26 09:03:23;;;;;;;10.40;6.65;;;8.00;99.90;;;;;;5014695;28;20517;-28
2023/11/26 09:05:49;;;;;;;9.23;6.13;;;8.00;99.90;;;;;;5034835;28;20219;-28
2023/11/26 09:08:19;;;;;;;10.13;7.07;;;8.10;99.90;;;;;;5015571;28;20447;-27
2023/11/26 09:10:46;;;;;;;9.20;6.67;;;8.10;99.90;;;;;;5037195;28;20466;-27
2023/11/26 09:13:16;;;;;;;9.80;7.07;;;8.10;99.90;;;;;;5037840;28;20813;-27
2023/11/26 09:16:07;;;;;;;12.77;7.37;;;8.00;99.90;;;;;;5035630;28;20184;-28
2023/11/26 09:18:37;;;;;;;9.67;7.23;;;8.10;99.90;;;;;;5016555;28;20488;-28
2023/11/26 09:21:06;;;;;;;11.80;7.57;;;8.10;99.90;;;;;;5037217;28;20442;-27
2023/11/26 09:23:36;;;;;;;11.97;7.33;;;8.10;99.90;;;;;;5034704;28;20447;-27
2023/11/26 09:26:04;;;;;;;8.87;7.27;;;8.00;99.90;;;;;;5019338;28;20458;-27
2023/11/26 09:28:30;;;;;;;11.83;7.27;;;8.00;99.90;;;;;;5037927;28;20434;-26
2023/11/26 09:30:58;;;;;;;11.27;7.60;;;8.00;99.90;;;;;;5034658;28;20423;-27
2023/11/26 09:33:24;;;;;;;13.50;8.33;;;8.00;99.90;;;;;;4999658;28;20282;-27
2023/11/26 09:35:50;;;;;;;10.70;7.93;;;8.00;99.90;;;;;;5018542;28;20443;-27
2023/11/26 09:38:20;;;;;;;12.10;7.20;;;8.10;99.90;;;;;;5035733;28;21035;-27
2023/11/26 09:40:46;;;;;;;10.73;8.05;;;8.10;99.90;;;;;;5036837;28;20496;-27
2023/11/26 09:43:13;;;;;;;9.83;6.97;;;8.10;99.90;;;;;;5036493;28;20399;-26
2023/11/26 09:45:39;;;;;;;10.87;7.83;;;8.10;99.90;;;;;;4995571;28;20471;-27
2023/11/26 09:48:09;;;;;;;12.90;8.60;;;8.10;99.90;;;;;;5015315;28;20442;-27
2023/11/26 09:50:40;;;;;;;11.07;8.20;;;8.10;99.90;;;;;;5035411;28;20517;-29
2023/11/26 09:53:08;;;;;;;10.50;7.93;;;8.10;99.90;;;;;;5016251;28;20462;-28
2023/11/26 09:55:39;;;;;;;9.60;7.30;;;8.10;99.90;;;;;;5018725;28;21028;-27
2023/11/26 09:58:05;;;;;;;10.93;7.37;;;8.00;99.90;;;;;;5037005;28;20434;-28
2023/11/26 10:00:31;;;;;;;9.00;7.27;;;8.00;99.90;;;;;;5036817;28;20446;-27
2023/11/26 10:03:03;;;;;;;9.80;7.90;;;8.00;99.90;;;;;;5002294;28;20469;-27
2023/11/26 10:05:33;;;;;;;10.50;7.90;;;8.10;99.90;;;;;;5019223;28;20287;-27
2023/11/26 10:08:00;;;;;;;12.77;8.00;;;8.10;99.90;;;;;;5033711;28;20458;-27
2023/11/26 10:10:29;;;;;;;13.87;8.70;;;8.10;99.90;;;;;;5035026;28;20505;-27
2023/11/26 10:13:04;;;;;;;12.10;7.80;;;8.10;99.90;;;;;;5034604;28;20450;-27
2023/11/26 10:15:39;;;;;;;11.75;7.50;;;8.10;99.90;;;;;;5014180;28;20473;-27
2023/11/26 10:18:09;;;;;;;12.60;7.87;;;8.10;99.90;;;;;;5034882;28;20875;-26
2023/11/26 10:20:43;;;;;;;13.63;8.70;;;8.20;99.90;;;;;;5035885;28;20435;-27
2023/11/26 10:23:10;;;;;;;12.70;9.20;;;8.20;99.90;;;;;;5017066;28;20462;-27
2023/11/26 10:25:43;;;;;;;10.17;8.20;;;8.20;99.90;;;;;;5017689;28;20988;-27
2023/11/26 10:28:16;;;;;;;10.00;7.60;;;8.10;99.90;;;;;;5034144;28;20436;-27
2023/11/26 10:30:43;;;;;;;9.23;7.83;;;8.10;99.90;;;;;;5032913;28;20438;-27
2023/11/26 10:33:13;;;;;;;9.53;7.00;;;8.10;99.90;;;;;;5013930;28;20454;-27
2023/11/26 10:35:46;;;;;;;17.42;9.73;;;8.10;99.90;;;;;;5033827;28;20434;-30
2023/11/26 10:38:13;;;;;;;11.25;8.88;;;8.10;99.90;;;;;;5036665;28;21342;-30
2023/11/26 10:40:39;;;;;;;12.80;9.00;;;8.20;99.90;;;;;;5022298;28;20219;-28
2023/11/26 10:43:09;;;;;;;13.60;9.57;;;8.30;99.90;;;;;;5021622;28;20532;-29
2023/11/26 10:45:37;;;;;;;10.15;8.07;;;8.20;99.90;;;;;;5019489;28;20550;-30
2023/11/26 10:48:11;;;;;;;12.43;8.33;;;8.30;99.90;;;;;;5036448;28;20239;-30
2023/11/26 10:50:59;;;;;;;11.30;8.40;;;8.30;99.90;;;;;;5017649;28;20427;-30
2023/11/26 10:53:50;;;;;;;9.33;7.83;;;8.30;99.90;;;;;;5032255;28;20451;-30
2023/11/26 10:56:22;;;;;;;15.23;9.40;;;8.30;99.90;;;;;;5037087;28;20434;-30
2023/11/26 10:58:51;;;;;;;10.30;7.37;;;8.20;99.90;;;;;;5039155;28;20465;-29
2023/11/26 11:01:23;;;;;;;12.83;8.47;;;8.30;99.90;;;;;;5040683;28;20438;-28
2023/11/26 11:03:53;;;;;;;12.23;7.77;;;8.30;99.90;;;;;;5027426;28;20465;-29
2023/11/26 11:06:23;;;;;;;12.80;7.65;;;8.30;99.90;;;;;;5015855;28;20697;-30
2023/11/26 11:08:52;;;;;;;12.67;8.40;;;8.30;99.90;;;;;;5014652;28;20657;-30
2023/11/26 11:11:45;;;;;;;10.67;7.77;;;8.30;99.90;;;;;;5020632;28;21003;-27
2023/11/26 11:14:12;;;;;;;12.50;8.30;;;8.30;99.90;;;;;;5019835;28;20478;-29
2023/11/26 11:16:40;;;;;;;10.77;8.17;;;8.40;99.90;;;;;;5021318;28;20442;-29
2023/11/26 11:19:06;;;;;;;12.27;8.10;;;8.40;99.90;;;;;;5039067;28;20430;-28
2023/11/26 11:21:47;;;;;;;16.67;8.83;;;8.40;99.90;;;;;;5039216;28;20418;-29
2023/11/26 11:24:19;;;;;;;11.37;8.20;;;8.40;99.90;;;;;;5038670;28;20524;-29
2023/11/26 11:26:47;;;;;;;11.37;8.43;;;8.40;99.90;;;;;;5038867;28;20532;-29
2023/11/26 11:29:32;;;;;;;9.40;7.90;;;8.40;99.90;;;;;;5020137;28;20643;-27
2023/11/26 11:32:01;;;;;;;12.13;8.63;;;8.40;99.90;;;;;;5021046;28;20464;-29
2023/11/26 11:34:30;;;;;;;11.80;8.43;;;8.30;99.90;;;;;;5017871;28;20479;-29
2023/11/26 11:36:59;;;;;;;12.97;9.60;;;8.40;99.90;;;;;;5017850;28;20433;-30
2023/11/26 11:40:00;;;;;;;11.87;7.80;;;8.30;99.90;;;;;;5037774;28;20481;-30
2023/11/26 11:42:31;;;;;;;13.60;9.20;;;8.30;99.90;;;;;;4999644;28;20785;-28
2023/11/26 11:45:28;;;;;;;10.90;8.43;;;8.30;99.90;;;;;;5008913;28;20444;-29
2023/11/26 11:47:56;;;;;;;15.63;9.03;;;8.30;99.90;;;;;;5020892;28;20454;-29
2023/11/26 11:50:30;;;;;;;13.50;9.20;;;8.40;99.90;;;;;;5035450;28;20445;-29
2023/11/26 11:53:00;;;;;;;9.63;7.47;;;8.40;99.90;;;;;;5038218;28;21028;-29
2023/11/26 11:55:34;;;;;;;14.85;8.93;;;8.30;99.90;;;;;;5039660;28;20434;-30
2023/11/26 11:58:19;;;;;;;10.70;8.40;;;8.40;99.90;;;;;;5023239;28;20292;-30
2023/11/26 12:00:48;;;;;;;13.17;8.30;;;8.50;99.90;;;;;;5039816;28;20465;-29
2023/11/26 12:03:16;;;;;;;14.07;8.93;;;8.40;99.90;;;;;;5019694;28;20473;-30
2023/11/26 12:05:42;;;;;;;16.30;9.73;;;8.50;99.90;;;;;;5020125;28;20470;-30
2023/11/26 12:08:15;;;;;;;15.90;8.23;;;8.40;99.90;;;;;;5038728;28;20462;-30
2023/11/26 12:10:42;;;;;;;11.90;8.27;;;8.40;99.90;;;;;;5039005;28;20460;-29
2023/11/26 12:13:10;;;;;;;12.10;9.77;;;8.40;99.90;;;;;;5022496;28;20230;-31
2023/11/26 12:15:39;;;;;;;11.93;8.83;;;8.50;99.90;;;;;;5022267;28;20457;-30
2023/11/26 12:18:05;;;;;;;10.73;8.55;;;8.50;99.90;;;;;;5038635;28;20567;-29
2023/11/26 12:20:31;;;;;;;10.00;8.23;;;8.50;99.90;;;;;;5034961;28;20647;-30
2023/11/26 12:22:58;;;;;;;10.37;8.97;;;8.60;99.90;;;;;;5000669;28;21058;-30
2023/11/26 12:25:25;;;;;;;11.50;9.33;;;8.50;99.90;;;;;;5034455;28;20514;-31
2023/11/26 12:28:05;;;;;;;11.23;9.20;;;8.50;99.90;;;;;;5023429;28;20545;-27
2023/11/26 12:30:33;;;;;;;10.03;8.07;;;8.50;99.90;;;;;;5033450;28;20432;-27
2023/11/26 12:33:01;;;;;;;15.23;8.60;;;8.50;99.90;;;;;;5043799;28;20450;-27
2023/11/26 12:35:30;;;;;;;12.90;9.40;;;8.50;99.90;;;;;;5038858;28;20439;-28
2023/11/26 12:38:01;;;;;;;16.02;9.32;;;8.50;99.90;;;;;;5017978;28;20795;-27
2023/11/26 12:40:29;;;;;;;12.70;9.37;;;8.50;99.90;;;;;;5022265;28;20260;-27
2023/11/26 12:42:56;;;;;;;14.90;10.53;;;8.60;99.90;;;;;;5017957;28;20796;-28
2023/11/26 12:45:23;;;;;;;17.07;11.13;;;8.60;99.90;;;;;;5018246;28;20477;-27
2023/11/26 12:47:53;;;;;;;15.00;10.63;;;8.60;99.90;;;;;;5038411;28;20435;-25
2023/11/26 12:50:21;;;;;;;13.10;10.60;;;8.60;99.90;;;;;;5039454;28;21273;-27
2023/11/26 12:52:48;;;;;;;16.63;10.63;;;8.60;99.90;;;;;;5021232;28;20490;-26
2023/11/26 12:55:15;;;;;;;14.93;9.90;;;8.70;99.90;;;;;;5039452;28;20426;-26
2023/11/26 12:57:43;;;;;;;11.73;9.90;;;8.60;99.90;;;;;;5032286;28;20458;-27
2023/11/26 13:00:12;;;;;;;19.00;10.00;;;8.60;99.90;;;;;;5037818;28;20482;-27
2023/11/26 13:02:43;;;;;;;12.03;9.30;;;8.70;99.90;;;;;;5026826;28;20462;-27